Time;durP1;ratioP1;P1;durP2;ratioP2;P2;SDS_P1;SDS_P2;PMS_P1;PMS_P2;Temp;Humidity;BMP_temperature;BMP_pressure;BME280_temperature;BME280_humidity;BME280_pressure;Samples;Min_cycle;Max_cycle;Signal;HPM_P1;HPM_P2
2023/04/15 00:00:14;;;;;;;5.20;3.03;;;;;;;9.97;55.40;94136.56;4994281;28;20261;-66
2023/04/15 00:02:40;;;;;;;4.47;3.10;;;;;;;9.96;55.88;94144.59;4994082;28;20219;-66
2023/04/15 00:05:06;;;;;;;4.10;2.60;;;;;;;10.08;54.29;94138.00;4987693;28;20283;-67
2023/04/15 00:07:31;;;;;;;3.40;2.77;;;;;;;10.00;53.76;94140.66;4989689;28;20715;-66
2023/04/15 00:09:57;;;;;;;2.93;2.30;;;;;;;10.05;52.77;94159.31;4990874;28;20224;-66
2023/04/15 00:12:26;;;;;;;3.57;2.60;;;;;;;10.12;53.66;94191.81;4997453;28;20198;-66
2023/04/15 00:14:52;;;;;;;4.43;2.43;;;;;;;10.06;53.54;94185.44;4991793;28;20222;-66
2023/04/15 00:17:17;;;;;;;4.30;3.10;;;;;;;10.08;53.69;94170.31;4995037;28;20220;-66
2023/04/15 00:19:47;;;;;;;4.38;2.80;;;;;;;10.17;54.61;94173.72;4994251;28;20226;-66
2023/04/15 00:22:12;;;;;;;4.27;3.07;;;;;;;10.26;55.40;94172.69;4994065;28;20256;-66
2023/04/15 00:24:38;;;;;;;3.57;2.67;;;;;;;10.30;55.31;94181.94;4993012;28;20223;-66
2023/04/15 00:27:04;;;;;;;4.37;3.07;;;;;;;10.23;55.78;94169.59;4992580;28;20191;-66
2023/04/15 00:29:30;;;;;;;3.38;2.92;;;;;;;10.22;55.88;94165.34;4993613;28;20699;-65
2023/04/15 00:31:58;;;;;;;4.78;2.83;;;;;;;10.10;55.54;94162.25;4989731;28;20319;-65
2023/04/15 00:34:23;;;;;;;3.65;3.17;;;;;;;10.08;54.56;94165.06;4998010;28;20472;-66
2023/04/15 00:36:50;;;;;;;5.47;3.30;;;;;;;10.21;55.75;94161.91;4993644;28;20281;-66
2023/04/15 00:39:15;;;;;;;7.97;2.80;;;;;;;10.12;57.28;94158.47;4994981;28;20191;-66
2023/04/15 00:41:43;;;;;;;4.05;2.90;;;;;;;9.93;55.89;94172.00;4992829;28;20238;-66
2023/04/15 00:44:09;;;;;;;4.60;3.15;;;;;;;9.90;55.35;94180.22;4995450;28;20242;-66
2023/04/15 00:46:36;;;;;;;4.47;3.42;;;;;;;10.08;56.34;94177.38;4991620;28;20652;-65
2023/04/15 00:49:03;;;;;;;5.78;3.38;;;;;;;10.24;57.56;94177.34;4990401;28;20250;-66
2023/04/15 00:51:30;;;;;;;4.57;3.17;;;;;;;10.24;57.64;94177.34;4988130;28;20196;-66
2023/04/15 00:53:56;;;;;;;4.45;3.33;;;;;;;10.24;57.78;94177.34;4996821;28;20231;-66
2023/04/15 00:56:23;;;;;;;4.03;3.55;;;;;;;10.14;57.88;94174.88;4990123;28;20223;-66
2023/04/15 00:58:50;;;;;;;3.78;3.25;;;;;;;10.11;57.03;94172.59;4989816;28;20238;-66
2023/04/15 01:01:20;;;;;;;5.50;4.03;;;;;;;10.09;57.14;94171.94;4990582;28;20227;-66
2023/04/15 01:03:46;;;;;;;5.60;4.28;;;;;;;10.08;57.76;94180.84;4983717;28;20245;-66
2023/04/15 01:06:13;;;;;;;4.10;3.70;;;;;;;10.04;57.28;94187.41;4989944;28;20246;-67
2023/04/15 01:08:38;;;;;;;4.90;3.80;;;;;;;10.03;56.71;94183.13;4990534;28;20229;-65
2023/04/15 01:11:04;;;;;;;5.03;4.00;;;;;;;9.95;57.15;94185.78;4988912;28;20228;-66
2023/04/15 01:13:32;;;;;;;5.47;4.13;;;;;;;10.03;57.25;94183.13;4988723;28;20383;-66
2023/04/15 01:15:57;;;;;;;6.67;4.40;;;;;;;9.98;57.42;94180.19;4993623;28;20575;-66
2023/04/15 01:18:23;;;;;;;6.20;4.37;;;;;;;9.94;57.24;94177.09;4981388;28;20192;-66
2023/04/15 01:20:48;;;;;;;5.70;4.50;;;;;;;9.95;57.10;94177.91;4990594;28;20196;-67
2023/04/15 01:23:15;;;;;;;6.87;4.53;;;;;;;10.03;57.47;94172.63;4992097;28;20238;-66
2023/04/15 01:25:43;;;;;;;4.57;4.18;;;;;;;9.99;57.59;94175.75;4992755;28;20234;-67
2023/04/15 01:28:09;;;;;;;7.30;4.20;;;;;;;9.91;57.59;94161.66;4989438;28;20219;-66
2023/04/15 01:30:35;;;;;;;6.07;4.80;;;;;;;9.92;58.07;94165.13;4989547;28;20302;-67
2023/04/15 01:33:00;;;;;;;4.80;4.23;;;;;;;9.92;57.77;94160.69;4991874;28;20302;-66
2023/04/15 01:35:26;;;;;;;6.40;4.72;;;;;;;9.85;58.07;94159.72;4988041;28;20699;-66
2023/04/15 01:37:53;;;;;;;6.87;4.50;;;;;;;9.81;57.84;94154.94;4991500;28;20698;-64
2023/04/15 01:40:19;;;;;;;6.07;4.93;;;;;;;9.77;57.93;94162.34;4990224;28;20223;-66
2023/04/15 01:42:45;;;;;;;5.73;4.77;;;;;;;9.75;58.18;94174.81;4978412;28;20306;-66
2023/04/15 01:45:12;;;;;;;5.93;4.65;;;;;;;9.64;58.46;94164.69;4988340;28;20195;-65
2023/04/15 01:47:37;;;;;;;6.63;5.10;;;;;;;9.68;58.24;94173.88;4986432;28;20224;-66
2023/04/15 01:50:03;;;;;;;7.23;4.13;;;;;;;9.71;57.88;94176.97;5003215;28;20219;-65
2023/04/15 01:52:29;;;;;;;5.65;4.45;;;;;;;9.58;57.31;94184.53;5011291;28;20230;-66
2023/04/15 01:54:54;;;;;;;5.43;4.30;;;;;;;9.60;57.27;94182.56;5009576;28;20230;-66
2023/04/15 01:57:20;;;;;;;4.80;3.83;;;;;;;9.63;57.54;94197.19;5001384;28;20183;-67
2023/04/15 01:59:45;;;;;;;5.27;3.40;;;;;;;9.61;57.43;94199.13;5018060;28;20256;-66
2023/04/15 02:02:11;;;;;;;4.43;3.73;;;;;;;9.66;56.95;94194.22;5016279;28;20226;-65
2023/04/15 02:04:37;;;;;;;5.23;3.50;;;;;;;9.64;57.15;94191.75;5021352;28;20226;-65
2023/04/15 02:07:02;;;;;;;4.83;3.30;;;;;;;9.61;56.92;94186.81;5014553;28;20219;-67
2023/04/15 02:09:28;;;;;;;4.33;3.47;;;;;;;9.69;56.80;94178.13;5017467;28;20190;-67
2023/04/15 02:11:53;;;;;;;6.30;3.13;;;;;;;9.65;57.06;94193.41;5014260;28;20190;-66
2023/04/15 02:14:19;;;;;;;5.25;3.65;;;;;;;9.61;57.50;94181.59;5005841;28;20226;-67
2023/04/15 02:16:44;;;;;;;5.80;3.80;;;;;;;9.67;57.23;94182.72;5013184;28;20304;-66
2023/04/15 02:19:10;;;;;;;6.23;3.30;;;;;;;9.65;57.26;94175.03;5015032;28;20218;-67
2023/04/15 02:21:35;;;;;;;4.70;3.57;;;;;;;9.69;57.97;94175.50;5013133;28;20300;-66
2023/04/15 02:24:01;;;;;;;4.23;3.10;;;;;;;9.66;57.39;94173.22;5013966;28;20191;-66
2023/04/15 02:26:27;;;;;;;4.93;3.40;;;;;;;9.58;58.12;94173.22;5012701;28;20225;-66
2023/04/15 02:28:53;;;;;;;4.63;3.47;;;;;;;9.53;59.13;94181.59;5019044;28;20226;-66
2023/04/15 02:31:20;;;;;;;5.25;3.58;;;;;;;9.47;59.17;94174.38;5011445;28;20353;-66
2023/04/15 02:33:46;;;;;;;5.27;3.63;;;;;;;9.49;58.54;94169.81;5012388;28;20226;-66
2023/04/15 02:36:14;;;;;;;4.33;3.70;;;;;;;9.46;58.46;94164.84;5013616;28;20183;-66
2023/04/15 02:38:41;;;;;;;3.37;3.03;;;;;;;9.45;58.60;94177.16;4994712;28;20592;-66
2023/04/15 02:41:08;;;;;;;3.97;3.37;;;;;;;9.34;58.11;94174.06;4993551;28;20317;-66
2023/04/15 02:43:34;;;;;;;4.13;3.40;;;;;;;9.27;58.32;94182.59;4993012;28;20223;-66
2023/04/15 02:45:59;;;;;;;5.80;3.77;;;;;;;9.31;58.32;94192.78;4992803;28;20234;-66
2023/04/15 02:48:24;;;;;;;4.87;3.77;;;;;;;9.27;58.04;94187.84;4994429;28;20617;-66
2023/04/15 02:50:50;;;;;;;4.37;3.97;;;;;;;9.19;58.49;94172.09;4994709;28;20253;-66
2023/04/15 02:53:16;;;;;;;6.07;3.77;;;;;;;9.19;58.98;94166.84;5006593;28;20251;-66
2023/04/15 02:55:41;;;;;;;4.00;3.60;;;;;;;9.27;59.89;94182.59;4993210;28;20234;-66
2023/04/15 02:58:07;;;;;;;5.33;3.93;;;;;;;9.01;59.95;94187.19;4997899;28;20310;-66
2023/04/15 03:00:32;;;;;;;9.40;4.40;;;;;;;9.11;59.08;94192.25;4988030;28;20188;-66
2023/04/15 03:03:02;;;;;;;6.00;4.10;;;;;;;9.12;58.91;94181.63;4993314;28;20668;-66
2023/04/15 03:05:28;;;;;;;6.50;4.43;;;;;;;9.07;59.46;94189.16;4988373;28;20262;-66
2023/04/15 03:07:53;;;;;;;4.22;3.72;;;;;;;9.14;59.50;94191.91;4988229;28;20223;-66
2023/04/15 03:10:19;;;;;;;9.13;4.77;;;;;;;9.13;59.23;94192.91;4995151;28;20225;-65
2023/04/15 03:12:45;;;;;;;7.50;4.80;;;;;;;9.17;58.51;94194.25;4993720;28;20219;-66
2023/04/15 03:15:11;;;;;;;6.15;4.78;;;;;;;8.70;58.77;94203.50;4998202;28;20229;-65
2023/04/15 03:17:36;;;;;;;10.13;5.43;;;;;;;8.56;59.28;94215.41;4996500;28;20227;-65
2023/04/15 03:20:03;;;;;;;7.07;4.90;;;;;;;8.79;58.63;94207.78;4991948;28;20219;-66
2023/04/15 03:22:32;;;;;;;5.80;4.70;;;;;;;8.88;58.70;94213.06;4993213;28;20259;-66
2023/04/15 03:24:58;;;;;;;6.27;4.37;;;;;;;8.93;58.43;94213.41;4997015;28;20258;-66
2023/04/15 03:27:23;;;;;;;5.00;4.50;;;;;;;8.76;58.01;94215.94;4992397;28;20215;-66
2023/04/15 03:29:49;;;;;;;7.93;5.03;;;;;;;8.72;57.43;94205.97;4993455;28;20193;-66
2023/04/15 03:32:14;;;;;;;5.43;4.60;;;;;;;8.60;57.25;94226.41;4991466;28;20223;-66
2023/04/15 03:34:41;;;;;;;5.70;4.80;;;;;;;8.47;57.42;94229.47;4991926;28;20235;-66
2023/04/15 03:37:07;;;;;;;6.87;4.87;;;;;;;8.36;57.93;94209.56;4993452;28;20223;-67
2023/04/15 03:39:33;;;;;;;5.53;4.73;;;;;;;8.38;58.19;94233.00;4994665;28;20245;-66
2023/04/15 03:41:58;;;;;;;8.20;5.30;;;;;;;8.03;58.98;94232.19;5000684;28;20274;-65
2023/04/15 03:44:25;;;;;;;7.53;5.13;;;;;;;8.05;59.21;94225.00;4994044;28;20226;-66
2023/04/15 03:46:51;;;;;;;6.90;5.10;;;;;;;8.12;59.61;94244.34;4991918;28;20303;-65
2023/04/15 03:49:18;;;;;;;6.57;5.13;;;;;;;7.89;59.19;94244.06;4991790;28;20374;-65
2023/04/15 03:51:43;;;;;;;6.67;5.03;;;;;;;8.16;58.64;94253.53;4999432;28;20598;-66
2023/04/15 03:54:09;;;;;;;5.93;5.33;;;;;;;8.16;58.96;94250.09;4990563;28;20227;-65
2023/04/15 03:56:34;;;;;;;7.17;6.03;;;;;;;8.24;59.00;94252.75;4993988;28;20227;-65
2023/04/15 03:59:00;;;;;;;7.30;5.80;;;;;;;8.20;59.35;94263.69;4993422;28;20223;-65
2023/04/15 04:01:25;;;;;;;6.33;5.70;;;;;;;7.99;60.23;94250.97;4988368;28;20227;-66
2023/04/15 04:03:51;;;;;;;6.83;5.70;;;;;;;8.10;59.54;94254.16;4981424;28;20231;-65
2023/04/15 04:06:16;;;;;;;9.80;5.97;;;;;;;8.05;59.48;94253.00;4995967;28;20240;-65
2023/04/15 04:08:42;;;;;;;6.37;5.70;;;;;;;8.01;59.39;94269.97;4996278;28;20191;-65
2023/04/15 04:11:07;;;;;;;7.80;5.13;;;;;;;8.06;59.18;94270.31;4993066;28;20301;-65
2023/04/15 04:13:33;;;;;;;8.60;5.80;;;;;;;8.12;59.86;94265.28;4991299;28;20262;-65
2023/04/15 04:15:58;;;;;;;7.03;6.33;;;;;;;8.17;59.76;94262.19;4995191;28;20223;-66
2023/04/15 04:18:24;;;;;;;7.73;5.80;;;;;;;8.25;60.41;94264.03;4982305;28;20622;-66
2023/04/15 04:20:49;;;;;;;8.90;5.77;;;;;;;8.24;60.35;94268.47;4996738;28;20226;-66
2023/04/15 04:23:15;;;;;;;7.73;5.33;;;;;;;8.33;60.18;94274.56;4990068;28;20314;-66
2023/04/15 04:25:40;;;;;;;6.80;6.20;;;;;;;8.34;60.05;94274.41;4992158;28;20215;-66
2023/04/15 04:28:06;;;;;;;7.73;6.57;;;;;;;8.36;59.44;94267.19;4989755;28;20305;-66
2023/04/15 04:30:32;;;;;;;6.53;5.53;;;;;;;8.38;59.27;94254.78;4990467;28;20371;-66
2023/04/15 04:32:58;;;;;;;7.77;6.57;;;;;;;8.47;59.34;94262.69;4995073;28;20188;-66
2023/04/15 04:35:23;;;;;;;7.60;6.30;;;;;;;8.43;59.23;94264.81;4991993;28;20283;-67
2023/04/15 04:37:49;;;;;;;7.03;6.23;;;;;;;8.44;59.17;94263.84;4990585;28;20253;-66
2023/04/15 04:40:15;;;;;;;8.53;5.90;;;;;;;8.53;59.71;94272.56;4991035;28;20577;-66
2023/04/15 04:42:40;;;;;;;9.07;7.00;;;;;;;8.55;59.50;94275.84;4990880;28;20235;-66
2023/04/15 04:45:06;;;;;;;8.00;7.20;;;;;;;8.41;60.19;94268.56;4988367;28;20188;-67
2023/04/15 04:47:31;;;;;;;7.57;6.83;;;;;;;8.37;60.45;94279.34;4989140;28;20690;-66
2023/04/15 04:49:57;;;;;;;10.07;8.20;;;;;;;8.50;60.02;94278.09;5005544;28;20277;-66
2023/04/15 04:52:22;;;;;;;8.23;7.40;;;;;;;8.36;59.30;94282.91;4999819;28;20275;-66
2023/04/15 04:54:48;;;;;;;10.97;7.43;;;;;;;8.60;58.35;94286.66;4992350;28;21383;-67
2023/04/15 04:57:13;;;;;;;8.83;7.97;;;;;;;8.73;57.85;94284.44;4992472;28;20191;-66
2023/04/15 04:59:39;;;;;;;9.60;7.53;;;;;;;8.88;57.60;94286.47;4992371;28;20223;-66
2023/04/15 05:02:05;;;;;;;9.47;8.50;;;;;;;8.55;58.39;94292.41;4970953;28;20224;-66
2023/04/15 05:04:30;;;;;;;10.23;8.13;;;;;;;8.71;57.69;94302.09;4982078;28;20310;-67
2023/04/15 05:06:57;;;;;;;8.20;7.13;;;;;;;8.82;57.12;94288.72;4991747;28;20227;-67
2023/04/15 05:09:22;;;;;;;9.93;7.43;;;;;;;8.89;57.13;94298.56;4990811;28;20191;-67
2023/04/15 05:11:47;;;;;;;10.77;8.13;;;;;;;8.92;57.21;94304.31;4990985;28;20183;-67
2023/04/15 05:14:13;;;;;;;8.23;7.33;;;;;;;9.09;56.74;94318.31;4990424;28;20238;-67
2023/04/15 05:16:38;;;;;;;9.10;7.63;;;;;;;9.21;56.25;94324.06;4991462;28;20250;-67
2023/04/15 05:19:04;;;;;;;9.20;7.27;;;;;;;9.17;55.11;94325.38;4988633;28;20599;-67
2023/04/15 05:21:30;;;;;;;9.87;7.43;;;;;;;9.08;55.64;94321.09;4990304;28;20655;-66
2023/04/15 05:23:56;;;;;;;10.47;7.23;;;;;;;9.19;55.05;94324.22;4986750;28;20191;-67
2023/04/15 05:26:21;;;;;;;7.53;6.67;;;;;;;9.27;54.52;94318.19;4990817;28;20221;-67
2023/04/15 05:28:46;;;;;;;6.93;6.20;;;;;;;9.37;54.31;94325.91;4992530;28;20651;-66
2023/04/15 05:31:12;;;;;;;10.80;6.47;;;;;;;9.43;54.13;94318.19;4991629;28;20230;-66
2023/04/15 05:33:39;;;;;;;10.33;6.37;;;;;;;9.25;53.70;94313.09;4992374;28;20219;-67
2023/04/15 05:36:05;;;;;;;9.60;6.83;;;;;;;9.36;53.35;94319.03;5001461;28;20337;-66
2023/04/15 05:38:30;;;;;;;8.33;6.43;;;;;;;9.47;53.29;94316.91;4978809;28;20310;-66
2023/04/15 05:40:56;;;;;;;8.83;5.80;;;;;;;9.59;52.59;94309.53;4995436;28;20362;-66
2023/04/15 05:43:21;;;;;;;7.77;5.97;;;;;;;9.63;52.28;94323.16;4991082;28;20273;-66
2023/04/15 05:45:47;;;;;;;7.87;6.13;;;;;;;9.64;52.68;94312.50;4991398;28;20223;-66
2023/04/15 05:48:12;;;;;;;6.17;5.37;;;;;;;9.70;52.63;94316.25;4991867;28;20194;-66
2023/04/15 05:50:41;;;;;;;5.97;5.27;;;;;;;9.81;51.89;94320.38;5006506;28;20226;-66
2023/04/15 05:53:07;;;;;;;6.67;5.30;;;;;;;9.89;52.59;94323.00;5013302;28;20674;-66
2023/04/15 05:55:32;;;;;;;7.72;6.13;;;;;;;9.97;52.49;94320.38;5012443;28;20721;-66
2023/04/15 05:57:58;;;;;;;9.55;5.93;;;;;;;10.03;52.53;94319.72;5017408;28;20229;-66
2023/04/15 06:00:23;;;;;;;5.60;5.10;;;;;;;10.04;51.96;94328.41;5007404;28;20226;-66
2023/04/15 06:02:49;;;;;;;5.95;4.85;;;;;;;10.06;50.78;94331.69;5011703;28;20250;-66
2023/04/15 06:05:14;;;;;;;4.70;4.27;;;;;;;9.86;51.55;94337.28;5017687;28;20215;-66
2023/04/15 06:07:40;;;;;;;5.20;3.90;;;;;;;10.07;51.14;94336.78;5009029;28;20254;-67
2023/04/15 06:10:06;;;;;;;5.50;4.22;;;;;;;10.22;50.81;94350.06;5014711;28;20283;-67
2023/04/15 06:12:32;;;;;;;6.82;4.82;;;;;;;10.29;50.73;94337.97;5017058;28;20222;-66
2023/04/15 06:14:57;;;;;;;6.07;4.90;;;;;;;10.38;50.99;94338.75;5016671;28;20313;-67
2023/04/15 06:17:23;;;;;;;7.83;5.40;;;;;;;10.48;50.71;94343.84;5011548;28;20419;-66
2023/04/15 06:19:50;;;;;;;6.27;5.20;;;;;;;10.43;51.09;94333.81;5012938;28;20226;-67
2023/04/15 06:22:16;;;;;;;5.65;5.13;;;;;;;10.42;51.08;94341.84;5005159;28;20219;-67
2023/04/15 06:24:41;;;;;;;6.33;5.67;;;;;;;10.54;51.03;94345.78;5016237;28;20230;-67
2023/04/15 06:27:07;;;;;;;6.72;5.18;;;;;;;10.64;50.86;94346.44;5013451;28;20183;-67
2023/04/15 06:29:32;;;;;;;6.47;4.90;;;;;;;10.54;51.18;94354.50;5015043;28;20702;-67
2023/04/15 06:31:57;;;;;;;5.47;4.28;;;;;;;10.70;51.19;94363.34;5013245;28;20218;-67
2023/04/15 06:34:23;;;;;;;5.97;4.15;;;;;;;10.79;50.43;94359.69;5016804;28;20229;-67
2023/04/15 06:36:49;;;;;;;4.68;4.10;;;;;;;10.81;49.72;94362.97;5012121;28;20717;-67
2023/04/15 06:39:15;;;;;;;6.43;3.40;;;;;;;10.81;49.68;94357.72;5012282;28;20191;-66
2023/04/15 06:41:40;;;;;;;5.43;3.45;;;;;;;10.95;49.25;94370.16;5011727;28;20218;-66
2023/04/15 06:44:05;;;;;;;6.22;4.38;;;;;;;11.02;49.08;94368.47;5014764;28;20257;-66
2023/04/15 06:46:31;;;;;;;7.32;4.55;;;;;;;10.98;48.62;94369.81;5012630;28;20241;-64
2023/04/15 06:48:56;;;;;;;6.60;4.00;;;;;;;10.95;48.59;94378.03;5010784;28;20277;-69
2023/04/15 06:51:22;;;;;;;6.63;3.97;;;;;;;10.96;48.61;94369.16;5011354;28;20240;-69
2023/04/15 06:53:48;;;;;;;5.18;3.95;;;;;;;11.04;48.67;94374.41;5016913;28;20248;-66
2023/04/15 06:56:13;;;;;;;5.10;4.03;;;;;;;11.11;48.85;94387.69;5010303;28;20310;-67
2023/04/15 06:58:39;;;;;;;7.88;3.90;;;;;;;11.24;48.17;94376.63;5013672;28;20215;-64
2023/04/15 07:01:04;;;;;;;8.15;4.25;;;;;;;11.24;48.10;94372.16;5010417;28;20230;-69
2023/04/15 07:03:30;;;;;;;5.03;3.90;;;;;;;11.31;47.94;94376.78;5002532;28;20183;-70
2023/04/15 07:05:55;;;;;;;5.68;4.47;;;;;;;11.33;47.86;94375.56;5015433;28;20249;-71
2023/04/15 07:08:22;;;;;;;5.00;4.23;;;;;;;11.43;47.53;94386.72;5012402;28;20218;-71
2023/04/15 07:10:47;;;;;;;6.70;3.88;;;;;;;11.51;46.63;94372.69;5015351;28;20230;-71
2023/04/15 07:13:12;;;;;;;4.30;3.85;;;;;;;11.46;46.98;94386.38;5015922;28;20314;-65
2023/04/15 07:15:38;;;;;;;8.18;4.90;;;;;;;11.48;47.09;94379.13;5009996;28;20277;-65
2023/04/15 07:18:03;;;;;;;7.70;4.55;;;;;;;11.52;47.14;94382.25;5016912;28;20313;-70
2023/04/15 07:20:29;;;;;;;6.13;4.38;;;;;;;11.58;46.49;94375.47;5012025;28;20222;-71
2023/04/15 07:22:55;;;;;;;4.93;3.97;;;;;;;11.63;46.25;94376.59;5012685;28;20297;-70
2023/04/15 07:25:20;;;;;;;4.72;4.18;;;;;;;11.73;46.12;94368.44;5013156;28;20326;-71
2023/04/15 07:27:46;;;;;;;6.97;4.20;;;;;;;11.79;45.92;94372.22;5014374;28;20775;-70
2023/04/15 07:30:12;;;;;;;6.00;4.28;;;;;;;11.89;46.06;94375.44;5010536;28;20330;-69
2023/04/15 07:32:37;;;;;;;5.78;3.85;;;;;;;11.96;46.02;94386.13;5014135;28;20226;-65
2023/04/15 07:35:03;;;;;;;5.10;3.50;;;;;;;11.98;46.06;94386.78;5011343;28;20227;-65
2023/04/15 07:37:29;;;;;;;5.80;4.25;;;;;;;11.96;45.91;94380.84;5011535;28;20345;-71
2023/04/15 07:39:54;;;;;;;6.00;4.10;;;;;;;12.10;46.02;94380.88;5017031;28;20218;-66
2023/04/15 07:42:20;;;;;;;4.85;3.70;;;;;;;12.14;45.54;94371.66;5005276;28;20187;-68
2023/04/15 07:44:46;;;;;;;5.30;3.40;;;;;;;12.17;45.50;94372.31;5011356;28;20203;-69
2023/04/15 07:47:11;;;;;;;5.22;3.63;;;;;;;12.12;45.81;94376.28;5013336;28;20222;-66
2023/04/15 07:49:37;;;;;;;9.38;3.70;;;;;;;12.15;46.21;94383.00;5008865;28;20226;-71
2023/04/15 07:52:03;;;;;;;4.60;3.53;;;;;;;12.30;46.06;94388.34;5010396;28;20215;-64
2023/04/15 07:54:28;;;;;;;5.00;3.42;;;;;;;12.28;46.04;94385.06;5011460;28;20385;-69
2023/04/15 07:56:54;;;;;;;4.68;3.53;;;;;;;12.26;45.37;94387.84;5013389;28;20182;-64
2023/04/15 07:59:20;;;;;;;6.32;3.95;;;;;;;12.35;45.17;94396.53;5010909;28;20969;-70
2023/04/15 08:01:45;;;;;;;7.20;4.20;;;;;;;12.36;45.13;94398.97;5014629;28;20309;-70
2023/04/15 08:04:11;;;;;;;8.68;3.88;;;;;;;12.41;45.04;94395.81;5009599;28;20225;-69
2023/04/15 08:06:38;;;;;;;4.43;3.50;;;;;;;12.46;44.74;94387.38;5011285;28;20392;-69
2023/04/15 08:09:04;;;;;;;6.22;3.90;;;;;;;12.55;44.96;94391.56;5026273;28;20191;-70
2023/04/15 08:11:30;;;;;;;6.13;3.25;;;;;;;12.48;45.17;94395.91;5012231;28;20687;-70
2023/04/15 08:13:56;;;;;;;5.45;3.35;;;;;;;12.62;44.41;94387.22;5013411;28;20246;-71
2023/04/15 08:16:26;;;;;;;5.38;3.33;;;;;;;12.74;44.41;94392.88;5010934;28;20231;-71
2023/04/15 08:18:54;;;;;;;5.78;3.35;;;;;;;12.83;44.51;94398.88;5005960;28;20226;-70
2023/04/15 08:21:19;;;;;;;4.07;2.97;;;;;;;12.91;44.30;94390.88;5008516;28;20254;-65
2023/04/15 08:23:48;;;;;;;5.10;3.30;;;;;;;13.01;43.41;94396.72;5018428;28;20187;-66
2023/04/15 08:26:14;;;;;;;8.00;2.97;;;;;;;13.07;43.31;94401.28;5010512;28;20215;-66
2023/04/15 08:28:41;;;;;;;5.45;3.17;;;;;;;13.21;42.95;94391.72;5012701;28;20640;-66
2023/04/15 08:31:08;;;;;;;5.70;3.17;;;;;;;13.27;42.57;94393.63;5011170;28;20237;-66
2023/04/15 08:33:34;;;;;;;4.97;3.20;;;;;;;13.40;41.61;94387.72;5010500;28;20195;-66
2023/04/15 08:35:59;;;;;;;4.88;3.00;;;;;;;13.40;41.32;94377.16;5011121;28;20733;-70
2023/04/15 08:38:25;;;;;;;3.85;2.53;;;;;;;13.61;38.99;94371.09;5011494;28;20223;-70
2023/04/15 08:40:50;;;;;;;5.13;2.13;;;;;;;13.35;38.53;94374.25;5010260;28;20257;-71
2023/04/15 08:43:27;;;;;;;2.60;2.05;;;;;;;13.35;38.72;94375.06;5015615;28;20215;-71
2023/04/15 08:45:53;;;;;;;4.80;1.90;;;;;;;13.58;38.18;94367.00;5009477;28;20325;-71
2023/04/15 08:48:20;;;;;;;3.20;2.15;;;;;;;13.64;38.66;94370.72;5011718;28;20187;-71
2023/04/15 08:50:46;;;;;;;3.95;2.33;;;;;;;13.69;38.23;94363.06;5009711;28;20180;-64
2023/04/15 08:53:12;;;;;;;4.47;2.38;;;;;;;13.81;38.52;94360.75;5025901;28;20227;-64
2023/04/15 08:55:45;;;;;;;3.50;2.15;;;;;;;13.97;38.79;94370.25;5004784;28;20226;-65
2023/04/15 08:58:15;;;;;;;3.45;1.73;;;;;;;14.08;38.86;94357.34;5010416;28;20306;-71
2023/04/15 09:00:40;;;;;;;5.07;2.50;;;;;;;14.21;38.89;94356.66;5012166;28;20314;-72
2023/04/15 09:03:07;;;;;;;4.25;2.60;;;;;;;14.22;39.55;94352.16;5014349;28;20265;-72
2023/04/15 09:05:34;;;;;;;3.25;2.22;;;;;;;14.35;39.02;94357.56;5011382;28;20215;-70
2023/04/15 09:08:01;;;;;;;2.38;1.88;;;;;;;14.32;37.82;94356.13;5022822;28;20326;-72
2023/04/15 09:10:27;;;;;;;4.00;2.30;;;;;;;14.40;38.19;94355.19;5010272;28;20222;-72
2023/04/15 09:12:53;;;;;;;4.22;2.25;;;;;;;14.62;37.93;94352.53;5011332;28;20218;-71
2023/04/15 09:15:19;;;;;;;2.60;1.73;;;;;;;14.70;36.00;94355.00;5009667;28;20277;-71
2023/04/15 09:17:45;;;;;;;6.20;1.70;;;;;;;14.76;35.15;94333.09;5009279;28;20183;-71
2023/04/15 09:20:12;;;;;;;3.28;2.30;;;;;;;14.75;35.10;94334.09;5010554;28;20223;-71
2023/04/15 09:22:38;;;;;;;3.05;1.75;;;;;;;15.13;34.25;94326.59;5011382;28;20234;-70
2023/04/15 09:25:25;;;;;;;4.88;2.30;;;;;;;15.04;34.61;94332.22;5009510;28;20293;-70
2023/04/15 09:28:01;;;;;;;2.67;2.13;;;;;;;14.87;33.75;94332.53;5010684;28;20429;-70
2023/04/15 09:30:27;;;;;;;3.55;1.73;;;;;;;14.89;33.62;94341.13;5006339;28;20201;-71
2023/04/15 09:32:58;;;;;;;3.30;1.80;;;;;;;15.03;33.32;94346.50;5010494;28;20281;-71
2023/04/15 09:35:26;;;;;;;4.30;1.63;;;;;;;15.34;32.54;94344.19;5009570;28;20223;-70
2023/04/15 09:37:52;;;;;;;4.57;1.80;;;;;;;15.39;32.76;94335.63;5009448;28;20304;-70
2023/04/15 09:40:38;;;;;;;2.80;1.60;;;;;;;15.62;32.17;94343.28;5020108;28;20225;-71
2023/04/15 09:43:05;;;;;;;4.97;1.98;;;;;;;15.63;32.37;94334.28;5026939;28;20220;-71
2023/04/15 09:45:31;;;;;;;2.03;1.52;;;;;;;15.74;31.60;94340.88;5007831;28;20277;-70
2023/04/15 09:47:59;;;;;;;4.57;1.67;;;;;;;15.94;31.40;94336.44;4999589;28;20251;-71
2023/04/15 09:50:28;;;;;;;4.45;1.40;;;;;;;15.95;30.80;94337.25;5012235;28;20215;-71
2023/04/15 09:52:54;;;;;;;1.85;1.45;;;;;;;15.88;32.21;94350.53;5009270;28;20254;-71
2023/04/15 09:55:20;;;;;;;2.08;1.40;;;;;;;16.05;31.33;94338.50;5009218;28;20226;-71
2023/04/15 09:57:48;;;;;;;2.35;1.60;;;;;;;16.09;31.42;94352.16;5009816;28;20219;-70
2023/04/15 10:00:14;;;;;;;3.42;1.73;;;;;;;16.30;30.42;94343.22;5009271;28;20183;-71
2023/04/15 10:02:41;;;;;;;2.35;1.50;;;;;;;16.52;29.39;94336.69;5010453;28;20226;-71
2023/04/15 10:05:09;;;;;;;2.13;1.10;;;;;;;16.71;28.54;94334.25;5006378;28;20213;-71
2023/04/15 10:07:35;;;;;;;4.03;1.15;;;;;;;16.81;29.02;94334.63;5009966;28;20222;-70
2023/04/15 10:10:02;;;;;;;3.65;1.08;;;;;;;16.79;28.50;94339.38;5006328;28;20214;-70
2023/04/15 10:12:28;;;;;;;1.38;1.13;;;;;;;16.90;26.17;94332.59;5008704;28;20249;-70
2023/04/15 10:15:04;;;;;;;1.63;0.93;;;;;;;16.84;25.03;94322.78;4998204;28;20310;-70
2023/04/15 10:17:35;;;;;;;1.52;0.98;;;;;;;16.53;25.83;94316.28;5010029;28;20292;-70
2023/04/15 10:20:03;;;;;;;1.25;0.88;;;;;;;16.52;25.97;94304.03;5008370;28;20234;-70
2023/04/15 10:22:29;;;;;;;1.65;0.95;;;;;;;16.38;26.45;94310.34;5015732;28;20264;-70
2023/04/15 10:24:55;;;;;;;2.45;1.23;;;;;;;16.61;26.86;94300.13;4998976;28;20302;-71
2023/04/15 10:27:21;;;;;;;2.17;1.10;;;;;;;16.48;26.33;94311.56;5012895;28;20270;-70
2023/04/15 10:29:49;;;;;;;2.25;1.00;;;;;;;16.78;25.78;94297.88;5013676;28;20266;-71
2023/04/15 10:32:17;;;;;;;1.25;0.70;;;;;;;16.84;25.90;94301.53;5014006;28;20222;-71
2023/04/15 10:34:44;;;;;;;2.38;0.95;;;;;;;17.02;26.02;94295.59;5012797;28;20243;-71
2023/04/15 10:37:10;;;;;;;2.35;1.02;;;;;;;17.17;26.70;94306.78;5000650;28;20215;-71
2023/04/15 10:39:36;;;;;;;1.27;1.00;;;;;;;17.20;26.65;94304.50;5012221;28;20222;-71
2023/04/15 10:42:10;;;;;;;1.10;0.98;;;;;;;17.41;26.30;94290.13;5004181;28;20186;-71
2023/04/15 10:44:41;;;;;;;1.77;0.93;;;;;;;17.57;26.03;94296.00;5011223;28;20221;-71
2023/04/15 10:47:12;;;;;;;2.38;1.30;;;;;;;17.69;26.23;94301.44;5011426;28;20305;-71
2023/04/15 10:49:46;;;;;;;2.40;1.08;;;;;;;17.87;25.65;94298.09;5008660;28;20302;-70
2023/04/15 10:52:13;;;;;;;1.10;1.00;;;;;;;17.91;25.69;94294.81;5009900;28;20736;-71
2023/04/15 10:54:38;;;;;;;1.65;0.93;;;;;;;17.87;25.78;94298.91;5000830;28;20234;-71
2023/04/15 10:57:04;;;;;;;2.25;1.15;;;;;;;17.96;25.23;94300.31;5016147;28;20178;-71
2023/04/15 11:00:10;;;;;;;1.67;1.10;;;;;;;17.90;25.07;94290.50;5013075;28;20250;-72
2023/04/15 11:02:51;;;;;;;1.33;0.90;;;;;;;17.95;24.54;94290.66;5012318;28;20214;-71
2023/04/15 11:05:17;;;;;;;2.38;1.10;;;;;;;17.56;25.72;94284.53;5006317;28;20235;-71
2023/04/15 11:07:43;;;;;;;3.63;1.80;;;;;;;17.98;24.99;94284.09;5005134;28;20226;-71
2023/04/15 11:10:24;;;;;;;3.17;1.30;;;;;;;18.10;25.54;94277.06;5010679;28;20222;-71
2023/04/15 11:12:52;;;;;;;1.80;1.10;;;;;;;18.33;24.83;94279.13;5018353;28;20233;-71
2023/04/15 11:15:31;;;;;;;2.38;1.00;;;;;;;18.49;25.23;94285.75;5010427;28;20257;-71
2023/04/15 11:18:09;;;;;;;1.88;1.10;;;;;;;18.55;25.24;94284.06;5018617;28;20187;-71
2023/04/15 11:20:38;;;;;;;2.13;1.10;;;;;;;18.55;24.32;94278.72;5030639;28;20230;-71
2023/04/15 11:23:04;;;;;;;1.70;1.00;;;;;;;18.58;24.28;94278.28;5012029;28;20219;-71
2023/04/15 11:25:31;;;;;;;1.60;0.88;;;;;;;18.82;23.89;94282.81;5015978;28;20226;-71
2023/04/15 11:27:58;;;;;;;1.55;1.10;;;;;;;19.06;23.61;94290.94;4995951;28;20420;-71
2023/04/15 11:30:25;;;;;;;2.75;0.93;;;;;;;18.48;22.38;94295.59;5027874;28;20203;-71
2023/04/15 11:32:53;;;;;;;0.98;0.85;;;;;;;18.46;21.51;94280.88;5011954;28;20285;-71